createdAt,value
2023-04-16T00:01:02.482Z,97988.92
2023-04-16T00:03:34.586Z,97991.55
2023-04-16T00:06:02.461Z,97987.52
2023-04-16T00:08:30.111Z,97987.66
2023-04-16T00:10:57.700Z,97987.85
2023-04-16T00:13:27.100Z,97984.05
2023-04-16T00:15:54.986Z,97983.95
2023-04-16T00:18:22.549Z,97985.40
2023-04-16T00:20:50.861Z,97989.43
2023-04-16T00:23:18.543Z,97988.21
2023-04-16T00:25:46.280Z,97986.98
2023-04-16T00:28:13.994Z,97988.04
2023-04-16T00:30:41.658Z,97989.62
2023-04-16T00:33:09.289Z,97991.73
2023-04-16T00:35:36.903Z,97991.59
2023-04-16T00:38:04.562Z,97991.91
2023-04-16T00:40:32.147Z,97989.09
2023-04-16T00:42:59.889Z,97993.41
2023-04-16T00:45:27.480Z,97995.30
2023-04-16T00:47:55.898Z,97994.79
2023-04-16T00:50:23.532Z,97997.58
2023-04-16T00:52:51.166Z,97998.09
2023-04-16T00:55:19.143Z,97999.79
2023-04-16T00:57:46.834Z,98001.65
2023-04-16T01:00:14.658Z,97996.77
2023-04-16T01:02:42.702Z,97994.90
2023-04-16T01:05:10.432Z,97995.09
2023-04-16T01:07:38.194Z,97992.42
2023-04-16T01:10:06.461Z,97993.42
2023-04-16T01:12:34.047Z,97994.04
2023-04-16T01:15:01.749Z,97997.64
2023-04-16T01:17:29.445Z,98001.81
2023-04-16T01:20:00.446Z,98001.95
2023-04-16T01:22:28.689Z,97998.38
2023-04-16T01:24:56.505Z,97999.34
2023-04-16T01:27:24.050Z,97995.45
2023-04-16T01:29:51.721Z,98001.69
2023-04-16T01:32:19.375Z,97998.38
2023-04-16T01:34:46.992Z,97998.01
2023-04-16T01:37:14.561Z,97999.88
2023-04-16T01:39:42.122Z,98000.67
2023-04-16T01:42:09.682Z,98007.57
2023-04-16T01:44:37.353Z,98009.79
2023-04-16T01:47:04.975Z,98013.08
2023-04-16T01:49:33.804Z,98016.51
2023-04-16T01:52:01.407Z,98016.09
2023-04-16T01:54:28.982Z,98017.97
2023-04-16T01:56:57.110Z,98015.90
2023-04-16T01:59:24.678Z,98017.34
2023-04-16T02:01:52.340Z,98015.45
2023-04-16T02:04:19.983Z,98015.80
2023-04-16T02:06:47.552Z,98019.08
2023-04-16T02:09:15.603Z,98019.92
2023-04-16T02:11:43.199Z,98022.91
2023-04-16T02:14:11.047Z,98026.25
2023-04-16T02:16:38.656Z,98030.46
2023-04-16T02:19:06.564Z,98028.73
2023-04-16T02:21:34.353Z,98031.50
2023-04-16T02:24:02.068Z,98036.66
2023-04-16T02:26:29.859Z,98043.09
2023-04-16T02:28:57.432Z,98043.11
2023-04-16T02:31:25.052Z,98046.77
2023-04-16T02:33:52.649Z,98050.45
2023-04-16T02:36:20.334Z,98052.54
2023-04-16T02:38:47.921Z,98052.88
2023-04-16T02:41:15.486Z,98055.16
2023-04-16T02:43:43.071Z,98054.33
2023-04-16T02:46:10.828Z,98054.55
2023-04-16T02:48:38.445Z,98060.53
2023-04-16T02:51:06.042Z,98059.50
2023-04-16T02:53:33.857Z,98059.85
2023-04-16T02:56:01.464Z,98057.23
2023-04-16T02:58:29.053Z,98060.89
2023-04-16T03:00:56.786Z,98060.77
2023-04-16T03:03:24.522Z,98064.84
2023-04-16T03:05:52.282Z,98064.18
2023-04-16T03:08:19.897Z,98070.15
2023-04-16T03:10:47.508Z,98068.92
2023-04-16T03:13:15.462Z,98066.63
2023-04-16T03:15:48.820Z,98072.57
2023-04-16T03:18:16.581Z,98071.55
2023-04-16T03:20:44.229Z,98072.07
2023-04-16T03:23:11.831Z,98074.67
2023-04-16T03:25:40.655Z,98075.33
2023-04-16T03:28:08.194Z,98076.52
2023-04-16T03:30:35.930Z,98074.98
2023-04-16T03:33:03.572Z,98080.59
2023-04-16T03:35:31.245Z,98081.12
2023-04-16T03:37:58.921Z,98087.52
2023-04-16T03:40:26.552Z,98085.56
2023-04-16T03:42:54.144Z,98090.38
2023-04-16T03:45:21.712Z,98098.02
2023-04-16T03:47:52.726Z,98099.02
2023-04-16T03:50:20.493Z,98103.17
2023-04-16T03:52:49.525Z,98105.42
2023-04-16T03:55:17.148Z,98110.77
2023-04-16T03:57:44.753Z,98115.80
2023-04-16T04:00:12.502Z,98119.67
2023-04-16T04:02:40.504Z,98119.70
2023-04-16T04:05:08.547Z,98126.36
2023-04-16T04:07:36.282Z,98130.73
2023-04-16T04:10:04.158Z,98132.86
2023-04-16T04:12:32.083Z,98128.20
2023-04-16T04:14:59.667Z,98131.72
2023-04-16T04:17:27.795Z,98135.09
2023-04-16T04:22:28.110Z,98141.40
2023-04-16T04:24:55.674Z,98145.40
2023-04-16T04:27:23.236Z,98148.34
2023-04-16T04:29:50.832Z,98149.25
2023-04-16T04:32:18.714Z,98152.84
2023-04-16T04:34:46.280Z,98153.43
2023-04-16T04:37:13.859Z,98156.58
2023-04-16T04:39:41.781Z,98158.33
2023-04-16T04:42:09.429Z,98158.71
2023-04-16T04:44:36.988Z,98155.42
2023-04-16T04:47:04.605Z,98158.25
2023-04-16T04:49:32.175Z,98158.11
2023-04-16T04:51:59.774Z,98160.73
2023-04-16T04:54:28.515Z,98162.97
2023-04-16T04:56:56.599Z,98162.06
2023-04-16T04:59:24.566Z,98165.87
2023-04-16T05:01:52.225Z,98170.58
2023-04-16T05:04:20.006Z,98173.02
2023-04-16T05:06:47.648Z,98174.92
2023-04-16T05:09:15.740Z,98179.46
2023-04-16T05:11:43.322Z,98179.27
2023-04-16T05:14:10.924Z,98180.46
2023-04-16T05:16:38.673Z,98182.56
2023-04-16T05:19:06.352Z,98188.04
2023-04-16T05:21:34.061Z,98189.14
2023-04-16T05:24:01.630Z,98190.75
2023-04-16T05:26:29.208Z,98198.83
2023-04-16T05:28:56.807Z,98203.94
2023-04-16T05:31:24.620Z,98206.30
2023-04-16T05:33:52.261Z,98205.73
2023-04-16T05:36:19.841Z,98204.45
2023-04-16T05:38:47.402Z,98204.49
2023-04-16T05:41:15.169Z,98201.92
2023-04-16T05:43:42.876Z,98205.29
2023-04-16T05:46:11.134Z,98206.09
2023-04-16T05:48:40.210Z,98208.25
2023-04-16T05:51:07.966Z,98215.81
2023-04-16T05:53:38.723Z,98220.23
2023-04-16T05:56:07.075Z,98231.31
2023-04-16T05:58:34.847Z,98234.16
2023-04-16T06:01:02.444Z,98229.89
2023-04-16T06:03:30.188Z,98230.48
2023-04-16T06:05:58.006Z,98230.58
2023-04-16T06:08:25.825Z,98232.23
2023-04-16T06:10:53.560Z,98235.30
2023-04-16T06:13:21.181Z,98236.95
2023-04-16T06:15:48.838Z,98241.50
2023-04-16T06:18:16.486Z,98248.48
2023-04-16T06:20:44.113Z,98253.73
2023-04-16T06:23:11.667Z,98254.46
2023-04-16T06:25:39.303Z,98259.21
2023-04-16T06:28:06.879Z,98265.86
2023-04-16T06:30:34.515Z,98265.36
2023-04-16T06:33:02.243Z,98268.35
2023-04-16T06:35:29.985Z,98271.20
2023-04-16T06:37:57.572Z,98268.16
2023-04-16T06:40:25.545Z,98267.02
2023-04-16T06:42:53.725Z,98266.35
2023-04-16T06:45:21.369Z,98268.64
2023-04-16T06:47:49.767Z,98270.95
2023-04-16T06:50:17.673Z,98271.53
2023-04-16T06:52:45.390Z,98269.48
2023-04-16T06:55:12.961Z,98268.68
2023-04-16T06:57:41.100Z,98275.02
2023-04-16T07:00:09.233Z,98273.46
2023-04-16T07:02:36.951Z,98273.35
2023-04-16T07:05:05.118Z,98275.66
2023-04-16T07:07:33.007Z,98279.54
2023-04-16T07:10:00.935Z,98279.23
2023-04-16T07:12:28.692Z,98280.81
2023-04-16T07:14:56.781Z,98281.39
2023-04-16T07:17:24.731Z,98280.02
2023-04-16T07:19:52.800Z,98282.65
2023-04-16T07:22:21.220Z,98284.23
2023-04-16T07:24:49.033Z,98285.28
2023-04-16T07:27:17.173Z,98288.78
2023-04-16T07:29:46.020Z,98290.19
2023-04-16T07:32:15.403Z,98291.22
2023-04-16T07:34:43.499Z,98293.67
2023-04-16T07:37:11.290Z,98295.95
2023-04-16T07:39:38.962Z,98299.45
2023-04-16T07:42:06.970Z,98302.59
2023-04-16T07:44:34.568Z,98300.16
2023-04-16T07:47:04.191Z,98303.17
2023-04-16T07:49:33.568Z,98300.20
2023-04-16T07:52:01.169Z,98298.14
2023-04-16T07:54:29.256Z,98296.25
2023-04-16T07:56:57.068Z,98297.81
2023-04-16T07:59:24.790Z,98300.99
2023-04-16T08:01:53.062Z,98296.83
2023-04-16T08:04:25.408Z,98301.90
2023-04-16T08:06:54.003Z,98304.02
2023-04-16T08:09:22.955Z,98307.01
2023-04-16T08:11:50.924Z,98310.36
2023-04-16T08:14:18.911Z,98309.86
2023-04-16T08:16:46.561Z,98308.14
2023-04-16T08:19:14.135Z,98316.02
2023-04-16T08:21:42.018Z,98318.48
2023-04-16T08:24:09.772Z,98320.42
2023-04-16T08:26:37.370Z,98324.30
2023-04-16T08:29:05.176Z,98327.13
2023-04-16T08:31:32.981Z,98328.00
2023-04-16T08:34:00.952Z,98328.20
2023-04-16T08:36:28.571Z,98330.98
2023-04-16T08:38:56.237Z,98337.29
2023-04-16T08:41:23.932Z,98337.48
2023-04-16T08:43:52.160Z,98344.65
2023-04-16T08:46:19.742Z,98346.42
2023-04-16T08:48:47.716Z,98349.40
2023-04-16T08:51:15.719Z,98354.49
2023-04-16T08:53:48.724Z,98355.20
2023-04-16T08:56:16.283Z,98358.36
2023-04-16T08:58:43.882Z,98360.65
2023-04-16T09:01:11.712Z,98366.43
2023-04-16T09:03:39.454Z,98371.88
2023-04-16T09:06:07.207Z,98363.82
2023-04-16T09:08:36.158Z,98367.31
2023-04-16T09:11:03.800Z,98368.20
2023-04-16T09:13:31.960Z,98373.80
2023-04-16T09:15:59.693Z,98372.91
2023-04-16T09:18:28.534Z,98368.37
2023-04-16T09:20:57.151Z,98372.38
2023-04-16T09:23:25.221Z,98369.38
2023-04-16T09:25:53.795Z,98370.73
2023-04-16T09:28:40.432Z,98375.11
2023-04-16T09:31:14.782Z,98373.84
2023-04-16T09:33:45.807Z,98372.92
2023-04-16T09:36:13.442Z,98374.66
2023-04-16T09:38:52.166Z,98380.80
2023-04-16T09:41:19.947Z,98382.36
2023-04-16T09:43:56.643Z,98383.73
2023-04-16T09:46:31.818Z,98383.15
2023-04-16T09:49:05.544Z,98385.40
2023-04-16T09:51:37.581Z,98381.88
2023-04-16T09:54:06.191Z,98387.71
2023-04-16T09:56:34.007Z,98389.88
2023-04-16T09:59:01.708Z,98392.36
2023-04-16T10:01:29.344Z,98393.44
2023-04-16T10:03:57.208Z,98401.16
2023-04-16T10:06:27.983Z,98400.26
2023-04-16T10:08:58.597Z,98399.89
2023-04-16T10:11:26.433Z,98397.60
2023-04-16T10:13:54.097Z,98397.76
2023-04-16T10:16:22.495Z,98398.96
2023-04-16T10:18:50.221Z,98400.38
2023-04-16T10:21:18.021Z,98399.00
2023-04-16T10:23:48.780Z,98398.31
2023-04-16T10:26:16.637Z,98403.23
2023-04-16T10:28:45.015Z,98403.05
2023-04-16T10:31:12.705Z,98402.83
2023-04-16T10:33:41.022Z,98397.30
2023-04-16T10:36:09.964Z,98401.24
2023-04-16T10:38:47.820Z,98400.95
2023-04-16T10:41:15.691Z,98405.73
2023-04-16T10:43:47.572Z,98405.64
2023-04-16T10:46:22.868Z,98407.27
2023-04-16T10:48:53.104Z,98410.11
2023-04-16T10:51:38.935Z,98405.21
2023-04-16T10:54:10.010Z,98413.19
2023-04-16T10:56:37.676Z,98410.09
2023-04-16T10:59:06.516Z,98407.15
2023-04-16T11:01:35.876Z,98409.16
2023-04-16T11:04:22.465Z,98405.84
2023-04-16T11:07:15.293Z,98408.74
2023-04-16T11:10:05.716Z,98408.84
2023-04-16T11:12:34.598Z,98407.11
2023-04-16T11:15:03.776Z,98408.20
2023-04-16T11:17:44.403Z,98401.71
2023-04-16T11:20:26.142Z,98402.10
2023-04-16T11:22:55.398Z,98400.66
2023-04-16T11:25:33.455Z,98395.38
2023-04-16T11:28:01.882Z,98392.25
2023-04-16T11:30:30.678Z,98391.89
2023-04-16T11:32:58.280Z,98390.55
2023-04-16T11:35:26.218Z,98392.02
2023-04-16T11:37:57.333Z,98394.95
2023-04-16T11:40:25.346Z,98393.88
2023-04-16T11:42:52.918Z,98395.60
2023-04-16T11:45:20.766Z,98384.86
2023-04-16T11:47:52.298Z,98387.01
2023-04-16T11:50:23.802Z,98385.55
2023-04-16T11:52:52.535Z,98381.95
2023-04-16T11:55:20.639Z,98387.13
2023-04-16T11:57:48.309Z,98385.13
2023-04-16T12:00:16.207Z,98385.27
2023-04-16T12:02:45.605Z,98384.25
2023-04-16T12:05:35.092Z,98387.12
2023-04-16T12:08:04.418Z,98386.05
2023-04-16T12:10:36.645Z,98382.02
2023-04-16T12:13:14.458Z,98385.28
2023-04-16T12:15:52.328Z,98388.41
2023-04-16T12:18:22.974Z,98387.83
2023-04-16T12:20:53.386Z,98379.42
2023-04-16T12:23:30.465Z,98381.38
2023-04-16T12:26:02.792Z,98372.23
2023-04-16T12:28:32.376Z,98372.37
2023-04-16T12:31:00.659Z,98372.47
2023-04-16T12:33:28.408Z,98373.28
2023-04-16T12:35:56.021Z,98376.23
2023-04-16T12:38:24.599Z,98379.73
2023-04-16T12:40:56.544Z,98377.35
2023-04-16T12:43:25.128Z,98381.52
2023-04-16T12:45:52.858Z,98382.20
2023-04-16T12:48:20.807Z,98381.41
2023-04-16T12:50:48.412Z,98381.08
2023-04-16T12:53:16.075Z,98382.51
2023-04-16T12:55:45.399Z,98384.31
2023-04-16T12:58:13.088Z,98381.61
2023-04-16T13:00:40.836Z,98381.48
2023-04-16T13:03:08.595Z,98382.56
2023-04-16T13:05:36.556Z,98384.51
2023-04-16T13:08:04.183Z,98383.10
2023-04-16T13:10:31.781Z,98383.95
2023-04-16T13:12:59.474Z,98384.31
2023-04-16T13:15:27.133Z,98381.71
2023-04-16T13:17:54.770Z,98386.77
2023-04-16T13:20:24.414Z,98383.16
2023-04-16T13:22:52.231Z,98382.82
2023-04-16T13:25:19.824Z,98386.26
2023-04-16T13:27:47.422Z,98385.92
2023-04-16T13:30:15.159Z,98383.92
2023-04-16T13:32:42.744Z,98382.64
2023-04-16T13:35:10.743Z,98386.71
2023-04-16T13:37:38.430Z,98380.42
2023-04-16T13:40:07.080Z,98378.95
2023-04-16T13:42:34.788Z,98386.68
2023-04-16T13:45:03.053Z,98389.80
2023-04-16T13:47:30.844Z,98390.08
2023-04-16T13:49:58.484Z,98386.72
2023-04-16T13:52:26.266Z,98384.27
2023-04-16T13:54:53.906Z,98385.48
2023-04-16T13:57:22.088Z,98383.86
2023-04-16T13:59:49.694Z,98383.06
2023-04-16T14:02:17.413Z,98381.73
2023-04-16T14:04:45.050Z,98379.73
2023-04-16T14:07:12.639Z,98379.86
2023-04-16T14:09:40.499Z,98377.92
2023-04-16T14:12:08.128Z,98375.29
2023-04-16T14:14:35.775Z,98374.49
2023-04-16T14:17:03.415Z,98368.84
2023-04-16T14:19:31.354Z,98372.16
2023-04-16T14:21:58.930Z,98370.94
2023-04-16T14:24:26.499Z,98369.52
2023-04-16T14:26:54.131Z,98363.39
2023-04-16T14:29:21.819Z,98361.84
2023-04-16T14:31:50.455Z,98359.55
2023-04-16T14:34:18.176Z,98364.95
2023-04-16T14:36:46.007Z,98366.05
2023-04-16T14:39:13.588Z,98368.20
2023-04-16T14:41:41.224Z,98361.83
2023-04-16T14:44:08.862Z,98358.91
2023-04-16T14:46:38.722Z,98361.58
2023-04-16T14:49:06.657Z,98352.62
2023-04-16T14:51:34.367Z,98354.77
2023-04-16T14:54:02.121Z,98355.37
2023-04-16T14:56:29.807Z,98353.45
2023-04-16T14:58:57.452Z,98352.02
2023-04-16T15:01:25.065Z,98352.02
2023-04-16T15:03:55.960Z,98352.30
2023-04-16T15:06:24.001Z,98351.81
2023-04-16T15:08:51.976Z,98354.98
2023-04-16T15:11:19.636Z,98355.38
2023-04-16T15:13:47.210Z,98357.97
2023-04-16T15:16:14.846Z,98358.75
2023-04-16T15:18:42.534Z,98364.02
2023-04-16T15:21:12.431Z,98363.68
2023-04-16T15:23:40.355Z,98361.52
2023-04-16T15:26:08.015Z,98362.16
2023-04-16T15:28:35.803Z,98365.76
2023-04-16T15:31:03.412Z,98372.60
2023-04-16T15:33:31.270Z,98376.30
2023-04-16T15:35:59.097Z,98378.79
2023-04-16T15:38:26.732Z,98378.04
2023-04-16T15:40:54.296Z,98377.14
2023-04-16T15:43:21.870Z,98376.62
2023-04-16T15:45:49.458Z,98376.77
2023-04-16T15:48:17.210Z,98379.54
2023-04-16T15:50:44.790Z,98378.05
2023-04-16T15:53:12.910Z,98377.23
2023-04-16T15:55:40.714Z,98379.77
2023-04-16T15:58:08.692Z,98380.90
2023-04-16T16:00:36.274Z,98384.84
2023-04-16T16:03:04.161Z,98383.25
2023-04-16T16:05:32.178Z,98384.17
2023-04-16T16:08:01.799Z,98387.66
2023-04-16T16:10:29.586Z,98386.35
2023-04-16T16:12:57.759Z,98389.90
2023-04-16T16:15:25.791Z,98389.79
2023-04-16T16:17:53.550Z,98393.14
2023-04-16T16:20:22.673Z,98394.52
2023-04-16T16:22:53.119Z,98398.75
2023-04-16T16:25:21.471Z,98401.56
2023-04-16T16:27:49.073Z,98397.65
2023-04-16T16:30:16.711Z,98397.99
2023-04-16T16:32:44.641Z,98398.50
2023-04-16T16:35:12.483Z,98398.45
2023-04-16T16:37:40.302Z,98399.29
2023-04-16T16:40:08.786Z,98402.21
2023-04-16T16:42:36.386Z,98402.84
2023-04-16T16:45:05.986Z,98402.20
2023-04-16T16:47:33.654Z,98407.26
2023-04-16T16:50:02.885Z,98404.73
2023-04-16T16:52:30.930Z,98405.54
2023-04-16T16:54:58.512Z,98405.91
2023-04-16T16:57:26.428Z,98410.11
2023-04-16T16:59:57.030Z,98408.33
2023-04-16T17:02:24.726Z,98408.64
2023-04-16T17:04:52.876Z,98414.80
2023-04-16T17:07:20.982Z,98413.42
2023-04-16T17:09:48.625Z,98417.22
2023-04-16T17:12:16.484Z,98420.81
2023-04-16T17:14:44.068Z,98423.41
2023-04-16T17:17:11.724Z,98425.69
2023-04-16T17:19:39.325Z,98427.26
2023-04-16T17:22:06.918Z,98431.97
2023-04-16T17:24:34.504Z,98436.33
2023-04-16T17:27:04.175Z,98440.14
2023-04-16T17:29:31.821Z,98441.12
2023-04-16T17:31:59.427Z,98443.70
2023-04-16T17:34:27.976Z,98444.86
2023-04-16T17:36:55.767Z,98448.15
2023-04-16T17:39:23.354Z,98450.19
2023-04-16T17:41:54.376Z,98447.66
2023-04-16T17:44:23.236Z,98453.04
2023-04-16T17:46:51.255Z,98454.00
2023-04-16T17:49:18.830Z,98459.50
2023-04-16T17:51:46.551Z,98463.77
2023-04-16T17:54:14.142Z,98464.89
2023-04-16T17:56:41.726Z,98468.27
2023-04-16T17:59:09.342Z,98466.89
2023-04-16T18:01:36.986Z,98468.15
2023-04-16T18:04:04.992Z,98473.63
2023-04-16T18:06:32.900Z,98472.23
2023-04-16T18:09:00.699Z,98476.45
2023-04-16T18:11:31.045Z,98481.20
2023-04-16T18:13:58.894Z,98488.36
2023-04-16T18:16:26.678Z,98489.04
2023-04-16T18:18:54.459Z,98494.81
2023-04-16T18:21:22.173Z,98497.42
2023-04-16T18:23:49.751Z,98496.17
2023-04-16T18:26:20.568Z,98497.89
2023-04-16T18:28:48.640Z,98501.72
2023-04-16T18:31:18.990Z,98506.94
2023-04-16T18:33:56.403Z,98511.27
2023-04-16T18:36:26.833Z,98516.33
2023-04-16T18:41:27.036Z,98518.69
2023-04-16T18:43:54.679Z,98517.41
2023-04-16T18:46:22.520Z,98522.97
2023-04-16T18:48:50.341Z,98527.27
2023-04-16T18:51:17.988Z,98524.23
2023-04-16T18:53:45.863Z,98533.80
2023-04-16T18:56:13.850Z,98529.73
2023-04-16T18:58:41.667Z,98533.16
2023-04-16T19:01:12.910Z,98534.33
2023-04-16T19:03:40.946Z,98534.27
2023-04-16T19:06:08.593Z,98536.14
2023-04-16T19:08:36.454Z,98534.84
2023-04-16T19:11:04.153Z,98540.54
2023-04-16T19:13:32.380Z,98541.35
2023-04-16T19:16:01.052Z,98541.96
2023-04-16T19:18:28.964Z,98538.73
2023-04-16T19:21:00.691Z,98545.48
2023-04-16T19:23:28.732Z,98545.41
2023-04-16T19:25:57.126Z,98546.76
2023-04-16T19:28:25.236Z,98545.53
2023-04-16T19:30:53.482Z,98548.86
2023-04-16T19:33:21.085Z,98547.82
2023-04-16T19:35:48.967Z,98553.58
2023-04-16T19:38:16.612Z,98554.23
2023-04-16T19:40:46.607Z,98555.21
2023-04-16T19:43:14.732Z,98554.92
2023-04-16T19:45:53.392Z,98552.70
2023-04-16T19:48:21.468Z,98558.14
2023-04-16T19:50:49.338Z,98554.84
2023-04-16T19:53:17.400Z,98552.58
2023-04-16T19:55:45.021Z,98551.40
2023-04-16T19:58:14.482Z,98553.21
2023-04-16T20:00:42.361Z,98553.09
2023-04-16T20:03:10.112Z,98553.83
2023-04-16T20:05:37.789Z,98552.47
2023-04-16T20:08:06.258Z,98554.77
2023-04-16T20:10:33.920Z,98552.52
2023-04-16T20:13:01.516Z,98563.23
2023-04-16T20:15:29.106Z,98558.46
2023-04-16T20:17:56.846Z,98556.56
2023-04-16T20:20:24.533Z,98559.87
2023-04-16T20:22:52.197Z,98557.77
2023-04-16T20:25:19.841Z,98556.69
2023-04-16T20:27:47.598Z,98558.37
2023-04-16T20:30:15.554Z,98558.80
2023-04-16T20:32:43.152Z,98559.76
2023-04-16T20:35:11.696Z,98561.04
2023-04-16T20:37:42.082Z,98558.16
2023-04-16T20:40:10.958Z,98557.90
2023-04-16T20:42:38.757Z,98558.34
2023-04-16T20:45:07.499Z,98555.13
2023-04-16T20:47:35.281Z,98557.08
2023-04-16T20:50:03.799Z,98564.11
2023-04-16T20:52:31.414Z,98561.92
2023-04-16T20:54:59.011Z,98558.88
2023-04-16T20:57:28.186Z,98557.79
2023-04-16T20:59:56.455Z,98556.84
2023-04-16T21:02:24.450Z,98561.45
2023-04-16T21:04:52.535Z,98561.69
2023-04-16T21:07:20.491Z,98559.31
2023-04-16T21:09:48.063Z,98560.24
2023-04-16T21:12:15.639Z,98564.11
2023-04-16T21:14:43.238Z,98566.89
2023-04-16T21:17:10.793Z,98560.97
2023-04-16T21:19:38.460Z,98562.23
2023-04-16T21:22:06.020Z,98559.68
2023-04-16T21:24:33.625Z,98558.02
2023-04-16T21:27:01.879Z,98559.05
2023-04-16T21:29:30.010Z,98558.38
2023-04-16T21:31:57.679Z,98556.35
2023-04-16T21:34:25.473Z,98557.77
2023-04-16T21:36:53.031Z,98558.27
2023-04-16T21:39:21.844Z,98558.55
2023-04-16T21:41:49.468Z,98557.06
2023-04-16T21:44:17.155Z,98559.20
2023-04-16T21:46:44.790Z,98555.88
2023-04-16T21:49:12.665Z,98556.09
2023-04-16T21:51:43.004Z,98559.60
2023-04-16T21:54:10.648Z,98559.61
2023-04-16T21:56:38.232Z,98562.08
2023-04-16T21:59:05.858Z,98561.38
2023-04-16T22:01:33.511Z,98560.26
2023-04-16T22:04:02.071Z,98559.73
2023-04-16T22:06:29.783Z,98563.03
2023-04-16T22:08:58.979Z,98564.39
2023-04-16T22:11:26.546Z,98565.14
2023-04-16T22:13:57.795Z,98562.56
2023-04-16T22:16:25.873Z,98563.56
2023-04-16T22:18:54.985Z,98561.23
2023-04-16T22:21:22.644Z,98564.84
2023-04-16T22:23:50.381Z,98564.64
2023-04-16T22:26:17.991Z,98567.77
2023-04-16T22:28:45.575Z,98562.73
2023-04-16T22:31:13.330Z,98568.09
2023-04-16T22:33:40.967Z,98567.93
2023-04-16T22:36:08.915Z,98570.45
2023-04-16T22:38:38.723Z,98568.52
2023-04-16T22:41:06.397Z,98566.46
2023-04-16T22:43:37.036Z,98570.84
2023-04-16T22:46:06.577Z,98568.92
2023-04-16T22:48:36.349Z,98570.11
2023-04-16T22:51:12.982Z,98564.82
2023-04-16T22:53:40.583Z,98567.62
2023-04-16T22:56:08.199Z,98568.85
2023-04-16T22:58:36.106Z,98568.86
2023-04-16T23:01:03.745Z,98564.17
2023-04-16T23:03:31.990Z,98563.66
2023-04-16T23:05:59.671Z,98561.91
2023-04-16T23:08:27.270Z,98559.17
2023-04-16T23:10:54.896Z,98560.33
2023-04-16T23:13:22.536Z,98559.48
2023-04-16T23:15:50.346Z,98558.67
2023-04-16T23:18:18.012Z,98554.53
2023-04-16T23:20:45.634Z,98555.03
2023-04-16T23:23:13.282Z,98552.85
2023-04-16T23:25:41.381Z,98549.05
2023-04-16T23:28:08.967Z,98549.73
2023-04-16T23:30:36.592Z,98548.16
2023-04-16T23:33:04.707Z,98546.05
2023-04-16T23:35:32.478Z,98545.05
2023-04-16T23:38:00.409Z,98546.85
2023-04-16T23:40:28.047Z,98546.13
2023-04-16T23:42:55.712Z,98544.06
2023-04-16T23:45:23.319Z,98546.06
2023-04-16T23:47:51.060Z,98540.58
2023-04-16T23:50:18.829Z,98538.88
2023-04-16T23:52:46.447Z,98542.02
2023-04-16T23:55:14.086Z,98537.85
2023-04-16T23:57:41.680Z,98537.05
